Flight Track Log - Related Links

Times and Time Zones

All times are in EST time to prevent confusion due to time zone crossing. See the N560ML flight status page for this flight to view local times or setup timezone preferences in your user account.

Time Position Orientation Groundspeed Altitude Reporting Facility
EST Latitude Longitude Course Direction KTS MPH feet Rate Location/Type
Sat 04:28:44 PM 40.6556 -84.0603 180° South 214 246 6,300  Level Indianapolis Center
Sat 04:29:45 PM 40.5928 -84.0625 182° South 223 257 10,200 3,984 Climbing Indianapolis Center
Sat 04:30:46 PM 40.5078 -84.0669 182° South 295 339 14,400 4,082 Climbing Indianapolis Center
Sat 04:31:47 PM 40.4158 -84.0714 182° South 327 376 18,500 3,689 Climbing Indianapolis Center
Sat 04:32:00 PM 40.0530 -84.0500 180° South  Level FlightAware Approximate
Sat 04:32:48 PM 40.3161 -84.0750 182° South 346 398 21,900  Level Indianapolis Center
Sat 04:33:00 PM 39.9448 -84.0500 180° South  Level FlightAware Approximate
Sat 04:33:49 PM 40.2147 -84.0781 181° South 368 423 24,200  Level Indianapolis Center
Sat 04:34:50 PM 40.1042 -84.0819 182° South 393 452 26,200 2,361 Climbing Indianapolis Center
Sat 04:35:51 PM 39.9711 -84.0864 181° South 400 460 29,000 2,390 Climbing Indianapolis Center
Sat 04:36:53 PM 39.8614 -84.0906 182° South 398 458 31,100 2,049 Climbing Indianapolis Center
Sat 04:37:54 PM 39.7581 -84.0931 181° South 381 438 33,200 2,066 Climbing Indianapolis Center
Sat 04:38:55 PM 39.6603 -84.0972 182° South 359 413 35,300 1,967 Climbing Indianapolis Center
Sat 04:39:56 PM 39.5697 -84.1008 182° South 335 386 37,200 1,082 Climbing Indianapolis Center
Sat 04:40:57 PM 39.4836 -84.1036 181° South 315 362 37,500 148 Climbing Indianapolis Center
Sat 04:41:58 PM 39.3864 -84.1069 182° South 345 397 37,500 49 Level Indianapolis Center
Sat 04:42:59 PM 39.2797 -84.1106 182° South 378 435 37,600 246 Climbing Indianapolis Center
Sat 04:44:00 PM 39.1428 -84.1156 182° South 407 468 38,000 439 Climbing Indianapolis Center
Sat 04:45:02 PM 39.0286 -84.1192 181° South 413 475 38,500 537 Climbing Indianapolis Center
Sat 04:46:03 PM 38.9131 -84.1231 182° South 415 478 39,100 541 Climbing Indianapolis Center
Sat 04:47:04 PM 38.7986 -84.1281 182° South 412 474 39,600 443 Climbing Indianapolis Center
Sat 04:48:05 PM 38.6853 -84.1311 181° South 410 472 40,000 197 Climbing Indianapolis Center
Sat 04:49:06 PM 38.5606 -84.1347 181° South 411 473 40,000  Level Indianapolis Center
Sat 04:50:07 PM 38.4442 -84.1386 181° South 416 479 40,000  Level Indianapolis Center
Sat 04:51:08 PM 38.3272 -84.1425 181° South 419 482 40,000  Level Indianapolis Center
Sat 04:52:10 PM 38.2100 -84.1453 181° South 420 483 40,000  Level Indianapolis Center
Sat 04:53:11 PM 38.0933 -84.1508 182° South 418 481 40,000  Level Indianapolis Center
Sat 04:54:12 PM 37.9747 -84.1539 181° South 423 487 40,000  Level Indianapolis Center
Sat 04:55:13 PM 37.8561 -84.1586 182° South 425 489 40,000  Level Indianapolis Center
Sat 04:56:14 PM 37.7386 -84.1600 181° South 423 487 40,000  Level Indianapolis Center
Sat 04:57:15 PM 37.5992 -84.1667 182° South 427 491 40,000  Level Indianapolis Center
Sat 04:58:16 PM 37.4803 -84.1700 181° South 428 493 40,000  Level Indianapolis Center
Sat 04:59:17 PM 37.3611 -84.1733 181° South 426 490 40,000  Level Indianapolis Center
Sat 05:00:19 PM 37.2442 -84.1781 182° South 422 486 40,000  Level Indianapolis Center
Sat 05:01:20 PM 37.1244 -84.1817 181° South 428 493 40,000  Level Indianapolis Center
Sat 05:02:21 PM 37.0061 -84.1850 181° South 426 490 40,000  Level Indianapolis Center
Sat 05:03:22 PM 36.8872 -84.1897 182° South 428 493 40,000  Level Indianapolis Center
Sat 05:04:23 PM 36.7675 -84.1931 181° South 430 495 40,000  Level Indianapolis Center
Sat 05:05:24 PM 36.6475 -84.1961 181° South 431 496 40,000  Level Indianapolis Center
Sat 05:06:25 PM 36.5094 -84.2011 182° South 428 493 40,000 49 Level Indianapolis Center
Sat 05:07:26 PM 36.3867 -84.2044 181° South 435 501 40,100 344 Climbing Indianapolis Center
Sat 05:08:27 PM 36.2661 -84.2081 181° South 434 499 40,700 443 Climbing Indianapolis Center
Sat 05:09:28 PM 36.1494 -84.2122 182° South 422 486 41,000 133 Climbing Indianapolis Center
Sat 05:10:42 PM 36.0019 -84.2183 182° South 434 499 41,000  Level Atlanta Center
Sat 05:11:42 PM 35.8831 -84.2208 181° South 429 494 41,000  Level Atlanta Center
Sat 05:12:42 PM 35.7642 -84.2231 181° South 429 494 41,000  Level Atlanta Center
Sat 05:13:42 PM 35.6450 -84.2303 183° South 423 487 41,000  Level Atlanta Center
Sat 05:14:42 PM 35.5261 -84.2328 181° South 423 487 41,000  Level Atlanta Center
Sat 05:15:42 PM 35.4072 -84.2375 182° South 423 487 41,000  Level Atlanta Center
Sat 05:16:42 PM 35.2883 -84.2422 182° South 423 487 41,000  Level Atlanta Center
Sat 05:17:42 PM 35.1694 -84.2444 181° South 423 487 41,000  Level Atlanta Center
Sat 05:18:42 PM 35.0483 -84.2467 181° South 423 487 41,000  Level Atlanta Center
Sat 05:19:42 PM 34.9567 -84.2492 181° South 423 487 41,000  Level Atlanta Center
Sat 05:20:42 PM 34.8272 -84.2489 180° South 423 487 41,000 200 Level Atlanta Center
Sat 05:21:42 PM 34.7125 -84.2561 183° South 423 487 41,400 500 Climbing Atlanta Center
Sat 05:22:42 PM 34.5956 -84.2583 181° South 423 487 42,000 600 Climbing Atlanta Center
Sat 05:23:42 PM 34.4808 -84.2606 181° South 417 480 42,600 500 Climbing Atlanta Center
Sat 05:24:42 PM 34.3681 -84.2653 182° South 417 480 43,000 200 Climbing Atlanta Center
Sat 05:25:42 PM 34.2533 -84.2675 181° South 411 473 43,000  Level Atlanta Center
Sat 05:26:42 PM 34.1300 -84.2722 182° South 411 473 43,000  Level Atlanta Center
Sat 05:27:42 PM 34.0111 -84.2794 183° South 423 487 43,000  Level Atlanta Center
Sat 05:28:42 PM 33.8922 -84.2842 182° South 428 493 43,000  Level Atlanta Center
Sat 05:29:42 PM 33.7753 -84.2861 181° South 421 484 43,000  Level Atlanta Center
Sat 05:30:42 PM 33.6542 -84.2883 181° South 421 484 43,000  Level Atlanta Center
Sat 05:31:42 PM 33.5497 -84.2931 182° South 421 484 43,000  Level Atlanta Center
Sat 05:32:42 PM 33.4308 -84.2978 182° South 421 484 43,000  Level Atlanta Center
Sat 05:33:42 PM 33.3119 -84.2997 181° South 421 484 43,000  Level Atlanta Center
Sat 05:34:42 PM 33.1950 -84.3044 182° South 421 484 43,000  Level Atlanta Center
Sat 05:35:42 PM 33.0656 -84.3089 182° South 421 484 43,000  Level Atlanta Center
Sat 05:36:42 PM 32.9486 -84.3111 181° South 421 484 43,000  Level Atlanta Center
Sat 05:37:42 PM 32.8297 -84.3183 183° South 421 484 43,000  Level Atlanta Center
Sat 05:38:42 PM 32.7231 -84.3153 179° South 421 484 43,000  Level Atlanta Center
Sat 05:39:42 PM 32.6061 -84.3200 182° South 421 484 43,000  Level Atlanta Center
Sat 05:40:42 PM 32.4914 -84.3219 181° South 421 484 43,000  Level Atlanta Center
Sat 05:41:42 PM 32.3725 -84.3267 182° South 426 490 43,000  Level Atlanta Center
Sat 05:43:29 PM 32.1647 -84.3308 181° South 418 481 43,000  Level Jacksonville Center
Sat 05:44:29 PM 32.0456 -84.3339 181° South 423 487 43,000  Level Jacksonville Center
Sat 05:45:29 PM 31.9308 -84.3369 181° South 423 487 43,000  Level Jacksonville Center
Sat 05:46:29 PM 31.8181 -84.3400 181° South 423 487 43,000  Level Jacksonville Center
Sat 05:47:29 PM 31.7053 -84.3431 181° South 423 487 43,000  Level Jacksonville Center
Sat 05:48:29 PM 31.5886 -84.3194 170° South 423 487 43,000  Level Jacksonville Center
Sat 05:49:29 PM 31.4719 -84.2833 165° South 423 487 43,000  Level Jacksonville Center
Sat 05:50:29 PM 31.3597 -84.2478 165° South 428 493 43,000  Level Jacksonville Center
Sat 05:51:29 PM 31.2306 -84.2094 166° South 435 501 43,000  Level Jacksonville Center
Sat 05:52:29 PM 31.1139 -84.1761 166° South 430 495 43,000  Level Jacksonville Center
Sat 05:53:29 PM 30.9994 -84.1431 166° South 430 495 43,000  Level Jacksonville Center
Sat 05:54:29 PM 30.8850 -84.1078 165° South 430 495 43,000  Level Jacksonville Center
Sat 05:55:29 PM 30.7706 -84.0750 166° South 430 495 43,000  Level Jacksonville Center
Sat 05:56:29 PM 30.6558 -84.0419 166° South 430 495 43,000  Level Jacksonville Center
Sat 05:57:29 PM 30.5644 -84.0119 164° South 430 495 43,000  Level Jacksonville Center
Sat 05:58:29 PM 30.4414 -83.9792 167° South 425 489 43,000  Level Jacksonville Center
Sat 05:59:29 PM 30.3269 -83.9467 166° South 425 489 43,000  Level Jacksonville Center
Sat 06:00:29 PM 30.2122 -83.9117 165° South 425 489 43,000  Level Jacksonville Center
Sat 06:01:29 PM 30.0997 -83.8817 167° South 425 489 43,000  Level Jacksonville Center
Sat 06:02:29 PM 29.9872 -83.8494 166° South 425 489 43,000  Level Jacksonville Center
Sat 06:03:29 PM 29.8728 -83.8147 165° South 425 489 43,000  Level Jacksonville Center
Sat 06:04:29 PM 29.7622 -83.7825 166° South 425 489 43,000  Level Jacksonville Center
Sat 06:05:29 PM 29.6478 -83.7528 167° South 425 489 43,000  Level Jacksonville Center
Sat 06:06:29 PM 29.5372 -83.7186 165° South 420 483 43,000  Level Jacksonville Center
Sat 06:07:29 PM 29.4247 -83.6889 167° South 415 478 43,000  Level Jacksonville Center
Sat 06:08:29 PM 29.3122 -83.6569 166° South 415 478 43,000  Level Jacksonville Center
Sat 06:09:29 PM 29.2039 -83.6253 166° South 415 478 43,000  Level Jacksonville Center
Sat 06:10:29 PM 29.0933 -83.5936 166° South 415 478 43,000  Level Jacksonville Center
Sat 06:11:29 PM 28.9850 -83.5619 166° South 410 472 43,000  Level Jacksonville Center
Sat 06:12:29 PM 28.8789 -83.5328 166° South 404 465 43,000  Level Jacksonville Center
Sat 06:13:29 PM 28.7703 -83.5036 167° South 404 465 43,000 -400 Level Jacksonville Center
Sat 06:14:29 PM 28.6619 -83.4700 165° South 404 465 42,200 -1,667 Descending Jacksonville Center
Sat 06:16:29 PM 28.4328 -83.4061 166° South 417 480 38,000 -2,133 Descending Miami Center
Sat 06:17:29 PM 28.3175 -83.3758 167° South 423 487 35,800 -1,500 Descending Miami Center
Sat 06:18:29 PM 28.2011 -83.3667 176° South 428 493 35,000 -750 Descending Miami Center
Sat 06:19:29 PM 28.0903 -83.3744 184° South 414 476 34,300 -1,100 Descending Miami Center
Sat 06:20:29 PM 27.9694 -83.3697 178° South 419 482 32,800 -1,550 Descending Miami Center
Sat 06:21:29 PM 27.8461 -83.3300 164° South 432 497 31,200 -1,550 Descending Miami Center
Sat 06:22:29 PM 27.7314 -83.2389 145° Southeast 462 532 29,700 -1,550 Descending Miami Center
Sat 06:23:29 PM 27.6225 -83.1508 144° Southeast 468 539 28,100 -1,550 Descending Miami Center
Sat 06:24:29 PM 27.5117 -83.0631 145° Southeast 486 559 26,600 -1,550 Descending Miami Center
Sat 06:25:29 PM 27.4047 -82.9778 145° Southeast 486 559 25,000 -1,600 Descending Miami Center
Sat 06:26:29 PM 27.2997 -82.8950 145° Southeast 474 545 23,400 -1,700 Descending Miami Center
Sat 06:27:29 PM 27.1967 -82.8128 145° Southeast 469 540 21,600 -1,850 Descending Miami Center
Sat 06:28:29 PM 27.0936 -82.7328 145° Southeast 458 527 19,700 -1,850 Descending Miami Center
Sat 06:29:29 PM 26.9986 -82.6558 144° Southeast 442 509 17,900 -1,750 Descending Miami Center
Sat 06:30:29 PM 26.9014 -82.5836 146° Southeast 432 497 16,200 -1,800 Descending Miami Center
Sat 06:31:29 PM 26.8083 -82.5069 144° Southeast 421 484 14,300 -1,800 Descending Miami Center
Sat 06:32:29 PM 26.7169 -82.4372 146° Southeast 405 466 12,600 -1,600 Descending Miami Center
Sat 06:33:29 PM 26.6217 -82.3656 146° Southeast 388 447 11,100 -1,100 Descending Miami Center
Sat 06:34:29 PM 26.5406 -82.3036 146° Southeast 371 427 10,400 -650 Descending Miami Center
Sat 06:35:29 PM 26.4592 -82.2467 148° Southeast 351 404 9,800 -650 Descending Miami Center
Sat 06:36:29 PM 26.3800 -82.1872 146° Southeast 351 404 9,100 -700 Descending Miami Center
Sat 06:37:29 PM 26.3047 -82.1353 148° Southeast 331 381 8,400 -750 Descending Miami Center
Sat 06:38:29 PM 26.2375 -82.0836 145° Southeast 311 358 7,600 -1,100 Descending Miami Center
Sat 06:39:29 PM 26.1678 -82.0483 156° South 293 337 6,200 -1,500 Descending Miami Center
Sat 06:40:29 PM 26.1000 -82.0175 158° South 274 315 4,600 -1,600 Descending Miami Center
Sat 06:42:00 PM 26.1210 -81.8392 66° East  Level FlightAware Approximate
Sat 06:49:00 PM 26.1500 -81.7667 66° East  Level FlightAware Approximate
Sat 06:50:00 PM 26.1524 -81.7756 66° East  Level Estimated
Sat 06:51:00 PM 26.1524 -81.7756 66° East  Level Estimated
Sat 06:52:00 PM 26.1524 -81.7756 66° East  Level Estimated
Sat 06:53:00 PM 26.1524 -81.7756 66° East  Level Estimated
Sat 06:54:00 PM 26.1524 -81.7756 66° East  Level Estimated

Login

Don't have an account? Register now (free) for customized features, flight alerts, and more!